Time;durP1;ratioP1;P1;durP2;ratioP2;P2;SDS_P1;SDS_P2;PMS_P1;PMS_P2;Temp;Humidity;BMP_temperature;BMP_pressure;BME280_temperature;BME280_humidity;BME280_pressure;Samples;Min_cycle;Max_cycle;Signal;HPM_P1;HPM_P2
2021/10/10 00:00:09;;;;;;;18.00;10.82;;;;;;;9.95;76.57;101446.97;4991478;28;20101;-62
2021/10/10 00:02:34;;;;;;;21.27;11.18;;;;;;;9.94;77.03;101439.03;4990816;28;20904;-63
2021/10/10 00:05:00;;;;;;;15.10;11.10;;;;;;;9.93;77.93;101440.00;4991122;28;20034;-63
2021/10/10 00:07:25;;;;;;;19.55;11.65;;;;;;;9.88;78.04;101440.31;4991093;28;20031;-62
2021/10/10 00:09:50;;;;;;;25.90;11.35;;;;;;;9.88;78.25;101442.13;4991301;28;20101;-62
2021/10/10 00:12:16;;;;;;;21.67;11.55;;;;;;;9.81;79.75;101428.28;4991184;28;20022;-62
2021/10/10 00:14:41;;;;;;;22.98;12.30;;;;;;;9.84;80.29;101432.56;4991291;28;20034;-62
2021/10/10 00:17:07;;;;;;;22.00;12.15;;;;;;;9.80;79.93;101425.72;4990267;28;20037;-62
2021/10/10 00:19:32;;;;;;;25.13;11.60;;;;;;;9.79;80.64;101437.38;4990723;28;20030;-62
2021/10/10 00:21:58;;;;;;;20.77;11.40;;;;;;;9.77;80.01;101434.78;4991268;28;20109;-62
2021/10/10 00:24:23;;;;;;;22.58;12.05;;;;;;;9.76;81.07;101446.47;4990810;28;20039;-62
2021/10/10 00:26:49;;;;;;;21.10;12.48;;;;;;;9.72;81.54;101430.72;4990467;28;20177;-62
2021/10/10 00:29:16;;;;;;;23.38;11.38;;;;;;;9.70;82.41;101428.13;4991079;28;20053;-63
2021/10/10 00:31:41;;;;;;;23.58;12.02;;;;;;;9.68;82.45;101429.19;4989810;28;20053;-62
2021/10/10 00:34:07;;;;;;;23.10;12.27;;;;;;;9.66;83.36;101431.13;4989268;28;20072;-62
2021/10/10 00:36:33;;;;;;;24.88;11.70;;;;;;;9.64;83.91;101425.84;4990163;28;20041;-62
2021/10/10 00:38:59;;;;;;;20.90;12.50;;;;;;;9.56;85.13;101424.66;4990595;28;20030;-61
2021/10/10 00:41:24;;;;;;;22.13;11.73;;;;;;;9.58;84.72;101428.09;4990686;28;20026;-62
2021/10/10 00:43:50;;;;;;;22.77;13.05;;;;;;;9.55;84.72;101423.81;4990321;28;20026;-62
2021/10/10 00:46:15;;;;;;;20.38;12.30;;;;;;;9.48;85.82;101411.75;4990536;28;20475;-62
2021/10/10 00:48:41;;;;;;;20.67;12.00;;;;;;;9.46;86.48;101411.03;5001026;28;20060;-63
2021/10/10 00:51:07;;;;;;;20.75;11.82;;;;;;;9.45;87.46;101408.44;5009791;28;20033;-62
2021/10/10 00:53:35;;;;;;;21.15;12.60;;;;;;;9.43;88.04;101408.53;5008392;28;20037;-62
2021/10/10 00:56:02;;;;;;;22.70;12.40;;;;;;;9.47;88.03;101406.50;5008415;28;20113;-63
2021/10/10 00:58:28;;;;;;;21.60;13.57;;;;;;;9.42;87.59;101406.84;5009191;28;20083;-63
2021/10/10 01:00:55;;;;;;;20.52;12.02;;;;;;;9.40;87.78;101397.16;5010026;28;20471;-63
2021/10/10 01:03:21;;;;;;;19.50;11.98;;;;;;;9.33;87.66;101394.88;5009634;28;20049;-64
2021/10/10 01:05:47;;;;;;;24.17;12.70;;;;;;;9.43;87.36;101400.50;5009497;28;20391;-63
2021/10/10 01:08:14;;;;;;;25.50;13.00;;;;;;;9.41;87.97;101401.56;5009770;28;20018;-63
2021/10/10 01:10:41;;;;;;;22.58;12.82;;;;;;;9.37;88.21;101406.25;5009310;28;20391;-63
2021/10/10 01:13:07;;;;;;;24.15;12.45;;;;;;;9.36;88.44;101401.00;5009179;28;20053;-63
2021/10/10 01:15:33;;;;;;;24.27;12.57;;;;;;;9.35;88.48;101404.66;4998385;28;20061;-63
2021/10/10 01:17:58;;;;;;;25.05;12.57;;;;;;;9.31;88.61;101406.66;4989349;28;20152;-63
2021/10/10 01:20:26;;;;;;;22.70;12.98;;;;;;;9.33;88.31;101407.44;4989403;28;20034;-64
2021/10/10 01:22:51;;;;;;;19.25;12.18;;;;;;;9.32;88.28;101403.00;4989383;28;20022;-63
2021/10/10 01:25:17;;;;;;;25.13;13.00;;;;;;;9.32;89.22;101404.84;4989619;28;20116;-62
2021/10/10 01:27:42;;;;;;;20.98;11.98;;;;;;;9.31;89.66;101401.31;4989251;28;20038;-62
2021/10/10 01:30:08;;;;;;;27.70;12.55;;;;;;;9.31;88.70;101409.34;4987756;28;20034;-62
2021/10/10 01:32:33;;;;;;;26.10;13.45;;;;;;;9.28;88.19;101401.50;4989254;28;20034;-62
2021/10/10 01:34:59;;;;;;;23.05;13.18;;;;;;;9.26;88.71;101400.75;4989290;28;20049;-62
2021/10/10 01:37:25;;;;;;;25.27;13.73;;;;;;;9.27;88.84;101398.00;4988467;28;20038;-62
2021/10/10 01:39:51;;;;;;;26.23;13.38;;;;;;;9.31;89.00;101406.66;4989009;28;20018;-63
2021/10/10 01:42:16;;;;;;;22.05;13.38;;;;;;;9.18;89.20;101390.56;4989342;28;20024;-62
2021/10/10 01:44:42;;;;;;;20.67;12.77;;;;;;;9.30;89.23;101410.31;4988936;28;20029;-63
2021/10/10 01:47:07;;;;;;;27.88;13.93;;;;;;;9.29;89.08;101412.13;4988825;28;20510;-62
2021/10/10 01:49:37;;;;;;;20.55;12.85;;;;;;;9.23;89.41;101392.94;4989156;28;20146;-62
2021/10/10 01:52:03;;;;;;;24.63;13.25;;;;;;;9.09;89.56;101384.91;5005828;28;20037;-62
2021/10/10 01:54:28;;;;;;;25.73;13.55;;;;;;;9.25;89.55;101410.59;5008747;28;20030;-63
2021/10/10 01:56:53;;;;;;;25.55;13.50;;;;;;;9.24;89.76;101416.06;5008587;28;20033;-62
2021/10/10 01:59:19;;;;;;;27.92;14.20;;;;;;;9.23;90.68;101417.03;5008548;28;20064;-62
2021/10/10 02:01:44;;;;;;;22.05;13.73;;;;;;;9.21;90.91;101411.75;5008548;28;20105;-62
2021/10/10 02:04:10;;;;;;;22.70;14.10;;;;;;;9.21;90.79;101413.56;5008608;28;20033;-63
2021/10/10 02:06:35;;;;;;;27.20;13.55;;;;;;;9.20;90.47;101412.69;5008173;28;20112;-63
2021/10/10 02:09:01;;;;;;;24.02;12.82;;;;;;;9.14;90.19;101407.78;5008386;28;20052;-63
2021/10/10 02:11:26;;;;;;;29.55;15.43;;;;;;;9.15;90.03;101408.59;5008241;28;20550;-63
2021/10/10 02:13:52;;;;;;;22.52;12.85;;;;;;;9.15;89.93;101409.47;5008354;28;20053;-63
2021/10/10 02:16:17;;;;;;;24.15;14.60;;;;;;;9.07;89.93;101394.88;5008435;28;20103;-63
2021/10/10 02:18:42;;;;;;;26.38;14.23;;;;;;;9.14;89.96;101406.91;5008058;28;20022;-63
2021/10/10 02:21:08;;;;;;;23.05;13.65;;;;;;;9.07;90.43;101405.59;5008352;28;20987;-63
2021/10/10 02:23:34;;;;;;;24.40;13.88;;;;;;;9.07;90.68;101402.91;5008256;28;20058;-63
2021/10/10 02:25:59;;;;;;;24.02;13.65;;;;;;;9.06;90.96;101404.72;5008029;28;20025;-63
2021/10/10 02:28:24;;;;;;;23.30;14.13;;;;;;;9.04;91.02;101408.47;5008128;28;20044;-63
2021/10/10 02:30:50;;;;;;;22.70;14.02;;;;;;;9.02;91.01;101407.69;5008181;28;20133;-63
2021/10/10 02:33:16;;;;;;;25.92;13.73;;;;;;;9.01;90.93;101408.66;5007234;28;20048;-63
2021/10/10 02:35:42;;;;;;;27.13;14.98;;;;;;;8.97;91.21;101402.63;5008113;28;20435;-63
2021/10/10 02:38:08;;;;;;;28.35;13.43;;;;;;;8.89;91.75;101391.56;5007943;28;20030;-64
2021/10/10 02:40:33;;;;;;;25.48;14.25;;;;;;;8.91;91.44;101396.81;5008685;28;20120;-63
2021/10/10 02:42:59;;;;;;;25.10;13.77;;;;;;;8.88;92.08;101392.53;5011981;28;20026;-63
2021/10/10 02:45:24;;;;;;;25.98;13.98;;;;;;;8.89;92.10;101398.72;5011607;28;20017;-63
2021/10/10 02:47:50;;;;;;;25.25;14.90;;;;;;;8.91;91.76;101396.81;5012115;28;20041;-63
2021/10/10 02:50:15;;;;;;;27.15;14.77;;;;;;;8.85;91.93;101398.06;5011763;28;20056;-63
2021/10/10 02:52:41;;;;;;;27.27;14.23;;;;;;;8.80;91.81;101391.28;5011793;28;20034;-63
2021/10/10 02:55:07;;;;;;;24.42;14.65;;;;;;;8.78;92.23;101385.19;5011658;28;20033;-63
2021/10/10 02:57:32;;;;;;;21.65;13.13;;;;;;;8.86;91.80;101404.25;5011538;28;20026;-63
2021/10/10 02:59:58;;;;;;;26.45;13.73;;;;;;;8.87;92.00;101398.81;5011409;28;20105;-63
2021/10/10 03:02:23;;;;;;;21.90;13.93;;;;;;;8.84;92.31;101398.16;5011488;28;20041;-63
2021/10/10 03:04:48;;;;;;;25.05;15.20;;;;;;;8.83;92.01;101404.47;5012018;28;20034;-63
2021/10/10 03:07:14;;;;;;;27.17;13.15;;;;;;;8.80;92.22;101391.28;5011510;28;20041;-63
2021/10/10 03:09:39;;;;;;;25.48;15.10;;;;;;;8.79;92.57;101395.78;5011174;28;20034;-63
2021/10/10 03:12:05;;;;;;;25.10;14.07;;;;;;;8.81;92.83;101396.53;5011502;28;20079;-63
2021/10/10 03:14:30;;;;;;;28.65;14.77;;;;;;;8.72;93.05;101382.88;5011077;28;20034;-63
2021/10/10 03:16:56;;;;;;;26.88;14.55;;;;;;;8.74;93.29;101389.03;5011457;28;20026;-63
2021/10/10 03:19:21;;;;;;;24.83;14.88;;;;;;;8.72;93.39;101390.91;5011298;28;20068;-63
2021/10/10 03:21:46;;;;;;;25.45;13.95;;;;;;;8.73;93.08;101389.94;5011518;28;20038;-63
2021/10/10 03:24:12;;;;;;;26.75;14.48;;;;;;;8.73;93.44;101390.81;5011271;28;20030;-63
2021/10/10 03:26:37;;;;;;;32.58;14.15;;;;;;;8.64;93.05;101379.84;5010792;28;20030;-63
2021/10/10 03:29:03;;;;;;;24.92;13.95;;;;;;;8.69;93.01;101389.31;5011099;28;20044;-63
2021/10/10 03:31:29;;;;;;;26.73;14.65;;;;;;;8.68;93.36;101378.69;5010833;28;20026;-63
2021/10/10 03:33:54;;;;;;;27.00;14.88;;;;;;;8.60;93.54;101371.16;5011294;28;20026;-63
2021/10/10 03:36:20;;;;;;;23.80;13.88;;;;;;;8.67;93.79;101379.63;5011132;28;20030;-64
2021/10/10 03:38:45;;;;;;;25.95;13.13;;;;;;;8.65;93.89;101379.72;5010863;28;20523;-67
2021/10/10 03:41:12;;;;;;;21.15;13.52;;;;;;;8.63;93.65;101384.34;5010918;28;20069;-63
2021/10/10 03:43:38;;;;;;;24.17;14.07;;;;;;;8.61;93.86;101372.03;5003665;28;20026;-63
2021/10/10 03:46:04;;;;;;;23.70;13.50;;;;;;;8.61;93.70;101375.53;4990954;28;20034;-63
2021/10/10 03:48:29;;;;;;;27.48;13.63;;;;;;;8.59;93.54;101379.28;4991203;28;20023;-64
2021/10/10 03:50:55;;;;;;;23.77;13.80;;;;;;;8.60;93.89;101376.50;4991408;28;20046;-63
2021/10/10 03:53:23;;;;;;;25.10;14.20;;;;;;;8.48;93.91;101361.22;4990924;28;20026;-63
2021/10/10 03:55:51;;;;;;;27.10;14.23;;;;;;;8.55;93.71;101377.75;4991139;28;20491;-63
2021/10/10 03:58:17;;;;;;;25.98;13.70;;;;;;;8.49;94.48;101367.44;4990926;28;20086;-63
2021/10/10 04:00:42;;;;;;;24.98;13.20;;;;;;;8.50;94.09;101363.81;4990773;28;20054;-63
2021/10/10 04:03:10;;;;;;;24.88;14.15;;;;;;;8.36;94.15;101345.09;4990925;28;20306;-63
2021/10/10 04:05:44;;;;;;;25.23;13.65;;;;;;;8.48;93.68;101363.91;4990757;28;20030;-62
2021/10/10 04:08:10;;;;;;;31.05;14.25;;;;;;;8.47;94.38;101369.34;4990945;28;20100;-63
2021/10/10 04:10:35;;;;;;;24.85;14.70;;;;;;;8.44;94.21;101373.06;4990606;28;20129;-63
2021/10/10 04:13:01;;;;;;;25.50;14.32;;;;;;;8.41;94.19;101354.53;4990818;28;20026;-63
2021/10/10 04:15:26;;;;;;;25.38;14.55;;;;;;;8.42;93.50;101360.75;4990712;28;20088;-63
2021/10/10 04:17:52;;;;;;;23.40;13.65;;;;;;;8.37;94.22;101357.50;5009635;28;20034;-64
2021/10/10 04:20:18;;;;;;;21.58;13.43;;;;;;;8.37;94.14;101361.03;5010148;28;20037;-63
2021/10/10 04:22:44;;;;;;;23.52;13.55;;;;;;;8.34;94.58;101358.56;5010183;28;20057;-63
2021/10/10 04:25:11;;;;;;;23.90;13.82;;;;;;;8.33;94.19;101372.00;5010113;28;20468;-63
2021/10/10 04:27:38;;;;;;;22.88;12.82;;;;;;;8.33;94.53;101372.88;5009636;28;20477;-63
2021/10/10 04:30:09;;;;;;;22.20;14.00;;;;;;;8.34;94.43;101365.72;5002900;28;20029;-63
2021/10/10 04:32:34;;;;;;;26.35;13.85;;;;;;;8.32;94.65;101360.47;5008037;28;20509;-63
2021/10/10 04:35:00;;;;;;;26.95;15.48;;;;;;;8.27;95.00;101367.03;5009792;28;20034;-63
2021/10/10 04:37:25;;;;;;;25.17;14.30;;;;;;;8.28;95.44;101368.75;5010105;28;20418;-63
2021/10/10 04:39:51;;;;;;;23.80;14.02;;;;;;;8.24;95.17;101354.75;5009878;28;20034;-63
2021/10/10 04:42:17;;;;;;;22.77;13.40;;;;;;;8.24;95.31;101367.22;5009597;28;20114;-63
2021/10/10 04:44:42;;;;;;;24.35;14.80;;;;;;;8.28;94.65;101374.97;5009572;28;20547;-63
2021/10/10 04:47:08;;;;;;;26.50;14.98;;;;;;;8.25;95.08;101372.47;5009564;28;20038;-63
2021/10/10 04:49:33;;;;;;;25.77;13.98;;;;;;;8.14;95.55;101352.69;5009627;28;20072;-63
2021/10/10 04:51:59;;;;;;;25.73;15.00;;;;;;;8.24;95.86;101368.09;5009670;28;20057;-64
2021/10/10 04:54:25;;;;;;;30.58;14.75;;;;;;;8.16;95.59;101361.47;5009778;28;20386;-63
2021/10/10 04:56:50;;;;;;;23.67;14.63;;;;;;;8.22;96.02;101374.50;5009277;28;20384;-63
2021/10/10 04:59:16;;;;;;;27.67;15.30;;;;;;;8.20;95.79;101366.53;5009241;28;20026;-63
2021/10/10 05:01:42;;;;;;;25.98;14.32;;;;;;;8.24;95.16;101368.09;5009196;28;20029;-63
2021/10/10 05:04:07;;;;;;;25.15;14.88;;;;;;;8.23;95.16;101374.41;5007485;28;20120;-63
2021/10/10 05:06:33;;;;;;;28.10;14.85;;;;;;;8.17;95.37;101366.72;5009261;28;20159;-64
2021/10/10 05:08:58;;;;;;;25.77;14.73;;;;;;;8.19;95.71;101372.81;5010062;28;20088;-64
2021/10/10 05:11:23;;;;;;;28.02;15.15;;;;;;;8.16;95.60;101370.34;5009008;28;20025;-64
2021/10/10 05:13:49;;;;;;;27.35;15.18;;;;;;;8.17;95.51;101369.41;5009195;28;20030;-63
2021/10/10 05:16:14;;;;;;;31.27;15.55;;;;;;;8.17;96.16;101379.22;4996758;28;20061;-62
2021/10/10 05:18:40;;;;;;;28.17;14.80;;;;;;;8.11;95.82;101371.56;4993621;28;20029;-63
2021/10/10 05:21:05;;;;;;;31.17;16.77;;;;;;;8.16;96.19;101381.03;5009119;28;20514;-63
2021/10/10 05:23:31;;;;;;;24.10;13.77;;;;;;;8.15;95.83;101379.31;5009781;28;20034;-62
2021/10/10 05:25:58;;;;;;;31.98;14.80;;;;;;;7.99;96.31;101350.94;5009035;28;20392;-63
2021/10/10 05:28:24;;;;;;;24.58;15.27;;;;;;;8.15;96.07;101384.66;5009220;28;20025;-63
2021/10/10 05:30:51;;;;;;;28.83;14.85;;;;;;;8.15;96.79;101383.78;5008886;28;20083;-62
2021/10/10 05:33:19;;;;;;;23.80;14.50;;;;;;;8.07;96.56;101376.25;5008880;28;20419;-62
2021/10/10 05:35:46;;;;;;;25.25;14.00;;;;;;;8.07;96.73;101384.28;5008787;28;20036;-62
2021/10/10 05:38:11;;;;;;;24.33;13.77;;;;;;;8.12;96.30;101384.84;5007596;28;20166;-62
2021/10/10 05:40:37;;;;;;;27.60;14.27;;;;;;;8.12;96.45;101392.84;5008569;28;20104;-63
2021/10/10 05:43:02;;;;;;;25.73;15.20;;;;;;;8.08;95.96;101391.34;5008842;28;20036;-64
2021/10/10 05:45:28;;;;;;;27.85;15.48;;;;;;;8.09;95.81;101395.72;5009282;28;20041;-64
2021/10/10 05:47:53;;;;;;;30.20;15.85;;;;;;;8.08;96.10;101394.00;5009053;28;20469;-64
2021/10/10 05:50:19;;;;;;;24.30;15.00;;;;;;;8.02;95.79;101389.03;5009166;28;20030;-63
2021/10/10 05:52:44;;;;;;;26.42;15.63;;;;;;;8.08;95.76;101398.47;5007422;28;20035;-63
2021/10/10 05:55:12;;;;;;;28.77;15.20;;;;;;;8.04;95.44;101383.59;5008461;28;20022;-64
2021/10/10 05:57:48;;;;;;;28.42;14.95;;;;;;;8.07;96.34;101394.97;5008737;28;20533;-63
2021/10/10 06:00:15;;;;;;;27.77;14.73;;;;;;;7.99;96.62;101388.34;5008585;28;20021;-64
2021/10/10 06:02:42;;;;;;;28.98;14.88;;;;;;;8.06;96.51;101403.06;5008553;28;20037;-64
2021/10/10 06:05:10;;;;;;;28.27;14.63;;;;;;;8.01;95.61;101390.00;5008754;28;20507;-64
2021/10/10 06:07:36;;;;;;;27.42;15.48;;;;;;;8.05;96.21;101402.19;5008445;28;20365;-63
2021/10/10 06:10:03;;;;;;;30.08;15.70;;;;;;;8.00;96.97;101390.06;5008851;28;20018;-63
2021/10/10 06:12:30;;;;;;;31.73;15.50;;;;;;;8.04;96.22;101396.94;5008628;28;20029;-63
2021/10/10 06:14:55;;;;;;;30.75;15.23;;;;;;;8.02;96.36;101393.50;5008609;28;20188;-63
2021/10/10 06:17:21;;;;;;;24.95;15.55;;;;;;;8.05;96.75;101390.63;5012665;28;20551;-63
2021/10/10 06:19:47;;;;;;;26.00;14.48;;;;;;;7.98;96.33;101389.31;5011064;28;20026;-63
2021/10/10 06:22:12;;;;;;;27.05;14.98;;;;;;;8.06;96.26;101403.91;5012336;28;20040;-63
2021/10/10 06:24:38;;;;;;;27.33;15.10;;;;;;;8.05;96.53;101393.31;5012355;28;20472;-62
2021/10/10 06:27:04;;;;;;;31.15;15.50;;;;;;;8.03;95.93;101395.25;5012312;28;20042;-63
2021/10/10 06:29:29;;;;;;;28.42;15.80;;;;;;;8.05;96.29;101398.66;5012496;28;20052;-63
2021/10/10 06:31:55;;;;;;;30.00;15.00;;;;;;;8.05;96.14;101402.19;5012463;28;20033;-64
2021/10/10 06:34:20;;;;;;;25.15;15.00;;;;;;;8.02;96.03;101388.16;5011003;28;20471;-63
2021/10/10 06:36:46;;;;;;;31.10;17.00;;;;;;;7.99;95.33;101389.22;5012073;28;20164;-64
2021/10/10 06:39:11;;;;;;;27.05;14.80;;;;;;;8.04;95.16;101402.28;5000438;28;20034;-64
2021/10/10 06:41:37;;;;;;;32.05;15.73;;;;;;;7.99;95.49;101391.00;4992708;28;20048;-63
2021/10/10 06:44:03;;;;;;;27.05;15.40;;;;;;;8.02;95.31;101393.50;4992627;28;20034;-63
2021/10/10 06:46:28;;;;;;;35.30;18.33;;;;;;;8.02;95.20;101402.38;4992784;28;20113;-63
2021/10/10 06:48:54;;;;;;;33.33;16.98;;;;;;;8.00;95.22;101395.41;4991235;28;20156;-61
2021/10/10 06:51:19;;;;;;;32.65;17.42;;;;;;;8.00;95.87;101400.75;4992091;28;20038;-62
2021/10/10 06:53:44;;;;;;;29.15;15.60;;;;;;;8.03;95.91;101397.91;4992111;28;20080;-63
2021/10/10 06:56:10;;;;;;;24.95;14.25;;;;;;;8.04;95.35;101403.16;4992357;28;20038;-63
2021/10/10 06:58:35;;;;;;;29.88;16.00;;;;;;;8.05;95.39;101398.66;4992019;28;20043;-63
2021/10/10 07:01:01;;;;;;;29.80;16.17;;;;;;;8.06;95.70;101397.72;4992546;28;20065;-63
2021/10/10 07:03:26;;;;;;;27.90;16.83;;;;;;;8.10;95.58;101396.59;4990802;28;20426;-63
2021/10/10 07:05:52;;;;;;;33.80;16.15;;;;;;;8.09;95.80;101397.53;4992308;28;20069;-63
2021/10/10 07:08:17;;;;;;;31.30;17.55;;;;;;;8.11;95.67;101399.16;4991872;28;20123;-63
2021/10/10 07:10:43;;;;;;;34.78;16.65;;;;;;;8.11;94.26;101403.63;4991973;28;20026;-62
2021/10/10 07:13:08;;;;;;;34.00;16.88;;;;;;;8.09;94.61;101393.03;4992112;28;20080;-63
2021/10/10 07:15:34;;;;;;;30.23;16.17;;;;;;;8.11;95.25;101393.81;4992081;28;20034;-61
2021/10/10 07:18:02;;;;;;;30.30;15.80;;;;;;;8.13;95.15;101401.75;4992046;28;20064;-62
2021/10/10 07:23:12;;;;;;;27.80;16.15;;;;;;;8.15;94.99;101394.47;4992154;28;20374;-63
2021/10/10 07:25:37;;;;;;;27.88;14.65;;;;;;;8.17;95.35;101397.94;4990314;28;20034;-63
2021/10/10 07:28:03;;;;;;;28.80;16.15;;;;;;;8.18;95.33;101405.84;4991231;28;20073;-62
2021/10/10 07:30:28;;;;;;;26.17;16.08;;;;;;;8.19;95.41;101404.06;4991488;28;20080;-62
2021/10/10 07:32:54;;;;;;;30.50;16.92;;;;;;;8.25;95.68;101398.34;4991199;28;20026;-62
2021/10/10 07:35:19;;;;;;;30.25;15.52;;;;;;;8.30;96.52;101406.94;4991933;28;20084;-62
2021/10/10 07:37:45;;;;;;;30.50;16.05;;;;;;;8.31;96.44;101400.63;4991157;28;20054;-63
2021/10/10 07:40:11;;;;;;;32.45;17.02;;;;;;;8.23;96.33;101384.22;4991339;28;20092;-62
2021/10/10 07:42:36;;;;;;;27.25;15.65;;;;;;;8.37;96.36;101400.28;4989889;28;20184;-62
2021/10/10 07:45:07;;;;;;;32.58;16.27;;;;;;;8.33;95.65;101390.72;4991364;28;20080;-62
2021/10/10 07:50:10;;;;;;;27.33;15.55;;;;;;;8.40;95.09;101387.59;4991417;28;20030;-62
2021/10/10 07:52:36;;;;;;;31.85;16.65;;;;;;;8.49;94.33;101391.50;4990967;28;20100;-62
2021/10/10 07:55:04;;;;;;;25.52;14.77;;;;;;;8.52;94.32;101402.84;4991135;28;20117;-62
2021/10/10 07:57:30;;;;;;;27.80;16.08;;;;;;;8.49;94.22;101392.38;4990903;28;20029;-62
2021/10/10 07:59:55;;;;;;;30.05;16.38;;;;;;;8.59;94.08;101406.00;4990862;28;20030;-63
2021/10/10 08:02:21;;;;;;;32.00;16.13;;;;;;;8.59;94.17;101401.53;5008274;28;20049;-62
2021/10/10 08:04:46;;;;;;;27.25;15.85;;;;;;;8.65;93.88;101405.63;5006275;28;20431;-63
2021/10/10 08:07:12;;;;;;;28.15;16.17;;;;;;;8.67;93.77;101396.56;4991325;28;20082;-63
2021/10/10 08:09:37;;;;;;;30.77;17.25;;;;;;;8.67;93.23;101409.06;4993735;28;20022;-62
2021/10/10 08:12:03;;;;;;;28.50;17.02;;;;;;;8.67;92.43;101406.38;5010650;28;20026;-64
2021/10/10 08:14:29;;;;;;;30.50;15.52;;;;;;;8.70;92.30;101408.84;5009967;28;20108;-63
2021/10/10 08:16:54;;;;;;;26.58;16.42;;;;;;;8.71;92.06;101416.78;5008842;28;20195;-62
2021/10/10 08:19:19;;;;;;;32.58;16.02;;;;;;;8.72;91.53;101412.31;5010091;28;20022;-63
2021/10/10 08:21:45;;;;;;;27.45;16.30;;;;;;;8.73;91.97;101414.03;5009860;28;20371;-63
2021/10/10 08:24:11;;;;;;;28.58;16.48;;;;;;;8.79;92.71;101421.66;5025059;28;20534;-63
2021/10/10 08:26:37;;;;;;;25.35;17.00;;;;;;;8.82;92.94;101419.66;5009406;28;20045;-63
2021/10/10 08:29:02;;;;;;;28.33;17.23;;;;;;;8.81;93.14;101412.56;5010076;28;20048;-63
2021/10/10 08:31:28;;;;;;;28.52;15.88;;;;;;;8.90;93.54;101427.22;5009704;28;20029;-63
2021/10/10 08:33:54;;;;;;;30.90;17.67;;;;;;;8.90;92.29;101424.53;5009674;28;20022;-62
2021/10/10 08:36:20;;;;;;;32.20;18.00;;;;;;;8.86;91.92;101407.81;4993783;28;20062;-63
2021/10/10 08:38:45;;;;;;;33.30;17.75;;;;;;;8.95;92.28;101412.59;4988951;28;20073;-62
2021/10/10 08:41:13;;;;;;;30.08;18.13;;;;;;;8.97;92.16;101412.50;4988929;28;20496;-63
2021/10/10 08:43:41;;;;;;;35.35;19.05;;;;;;;9.00;92.71;101405.09;5004030;28;20029;-63
2021/10/10 08:46:08;;;;;;;31.40;17.30;;;;;;;8.96;91.57;101400.03;5009584;28;20030;-63
2021/10/10 08:48:34;;;;;;;31.75;18.58;;;;;;;8.98;91.49;101406.16;5009723;28;20483;-63
2021/10/10 08:50:59;;;;;;;30.77;17.27;;;;;;;9.06;91.58;101412.75;5009502;28;20030;-63
2021/10/10 08:53:26;;;;;;;30.65;17.40;;;;;;;9.06;91.95;101402.03;5009387;28;20048;-62
2021/10/10 08:55:52;;;;;;;32.72;17.92;;;;;;;9.04;91.32;101401.31;5009340;28;20037;-63
2021/10/10 08:58:23;;;;;;;30.90;17.48;;;;;;;9.13;90.98;101410.56;5009113;28;20079;-63
2021/10/10 09:01:01;;;;;;;27.98;17.08;;;;;;;9.16;91.15;101405.84;5009265;28;20515;-63
2021/10/10 09:03:27;;;;;;;33.97;17.02;;;;;;;9.19;92.00;101402.09;5007837;28;20034;-63
2021/10/10 09:05:52;;;;;;;32.17;18.52;;;;;;;9.24;93.04;101398.19;5009210;28;20029;-63
2021/10/10 09:08:19;;;;;;;28.48;17.25;;;;;;;9.32;93.04;101395.84;5009102;28;20395;-63
2021/10/10 09:10:55;;;;;;;31.70;18.35;;;;;;;9.40;91.88;101399.84;5009165;28;20376;-63
2021/10/10 09:13:27;;;;;;;30.35;17.20;;;;;;;9.40;91.53;101384.66;5008959;28;20491;-63
2021/10/10 09:15:55;;;;;;;31.35;16.98;;;;;;;9.51;91.40;101386.63;5009161;28;20025;-63
2021/10/10 09:18:32;;;;;;;31.90;16.85;;;;;;;9.54;90.92;101389.94;5008922;28;20025;-63
2021/10/10 09:21:27;;;;;;;27.95;17.20;;;;;;;9.62;90.44;101384.06;5009012;28;20032;-63
2021/10/10 09:23:56;;;;;;;30.02;18.48;;;;;;;9.66;88.96;101391.81;5009080;28;20036;-63
2021/10/10 09:26:23;;;;;;;31.08;17.65;;;;;;;9.57;87.36;101370.16;5008818;28;20038;-63
2021/10/10 09:28:50;;;;;;;29.25;18.33;;;;;;;9.55;86.82;101364.91;5007436;28;20033;-63
2021/10/10 09:31:16;;;;;;;31.98;18.63;;;;;;;9.71;87.09;101380.78;5009813;28;20379;-63
2021/10/10 09:33:55;;;;;;;35.03;19.20;;;;;;;9.73;87.28;101384.19;5008612;28;20029;-63
2021/10/10 09:36:30;;;;;;;33.38;18.00;;;;;;;9.73;85.46;101374.34;5007537;28;20400;-63
2021/10/10 09:41:32;;;;;;;30.83;17.92;;;;;;;9.83;87.08;101371.94;5008925;28;20076;-63
2021/10/10 09:44:01;;;;;;;34.97;18.42;;;;;;;9.87;86.25;101368.06;5008478;28;20017;-62
2021/10/10 09:46:28;;;;;;;35.65;18.08;;;;;;;9.91;86.79;101358.84;5008375;28;20021;-62
2021/10/10 09:48:54;;;;;;;30.02;18.98;;;;;;;9.83;86.60;101340.59;5008748;28;20029;-62
2021/10/10 09:51:29;;;;;;;39.47;21.92;;;;;;;10.03;85.95;101368.72;5008327;28;20045;-63
2021/10/10 09:54:05;;;;;;;32.40;19.38;;;;;;;10.06;84.48;101369.41;5008485;28;20075;-62
2021/10/10 09:56:33;;;;;;;34.70;19.27;;;;;;;10.01;82.92;101365.28;5007088;28;20021;-62
2021/10/10 09:58:59;;;;;;;27.90;16.63;;;;;;;10.08;82.40;101372.84;5008100;28;20083;-63
2021/10/10 10:01:29;;;;;;;32.47;18.73;;;;;;;10.10;83.35;101381.66;5008554;28;20810;-63
2021/10/10 10:03:55;;;;;;;32.58;17.45;;;;;;;10.12;82.82;101384.22;5008489;28;20022;-62
2021/10/10 10:06:21;;;;;;;33.15;19.08;;;;;;;10.10;82.88;101370.94;5008286;28;20503;-63
2021/10/10 10:08:47;;;;;;;29.27;17.10;;;;;;;10.10;81.96;101367.38;5008258;28;20026;-62
2021/10/10 10:11:12;;;;;;;36.22;18.60;;;;;;;10.13;81.07;101376.03;5008392;28;20041;-63
2021/10/10 10:13:38;;;;;;;35.92;19.27;;;;;;;10.17;81.27;101382.94;5008250;28;20068;-62
2021/10/10 10:16:06;;;;;;;30.35;18.60;;;;;;;10.18;82.27;101379.28;4988777;28;20033;-63
2021/10/10 10:18:32;;;;;;;29.58;17.70;;;;;;;10.20;82.28;101379.16;4988592;28;20042;-62
2021/10/10 10:20:58;;;;;;;36.35;18.85;;;;;;;10.24;83.20;101381.53;4988646;28;20072;-62
2021/10/10 10:23:25;;;;;;;33.38;17.90;;;;;;;10.29;83.52;101378.53;4987343;28;20084;-63
2021/10/10 10:25:52;;;;;;;29.92;17.38;;;;;;;10.27;82.64;101365.25;4988292;28;20038;-62
2021/10/10 10:28:19;;;;;;;34.33;17.85;;;;;;;10.35;82.84;101373.59;4988772;28;20090;-63
2021/10/10 10:30:46;;;;;;;35.50;17.48;;;;;;;10.39;81.45;101367.06;4988337;28;20030;-63
2021/10/10 10:33:12;;;;;;;30.23;16.35;;;;;;;10.42;80.42;101364.16;4988819;28;20124;-63
2021/10/10 10:35:45;;;;;;;30.20;17.70;;;;;;;10.43;80.92;101368.56;4988650;28;20058;-63
2021/10/10 10:38:10;;;;;;;30.08;16.42;;;;;;;10.42;80.36;101358.78;4988717;28;20034;-63
2021/10/10 10:40:39;;;;;;;25.23;14.82;;;;;;;10.49;80.06;101368.13;4988289;28;20044;-63
2021/10/10 10:43:07;;;;;;;27.38;16.85;;;;;;;10.54;80.71;101371.34;4988383;28;20022;-63
2021/10/10 10:45:37;;;;;;;31.92;16.70;;;;;;;10.58;80.82;101361.25;4988335;28;20500;-65
2021/10/10 10:48:08;;;;;;;30.50;16.58;;;;;;;10.56;80.95;101355.13;4988583;28;20164;-64
2021/10/10 10:50:44;;;;;;;29.73;16.17;;;;;;;10.59;80.86;101354.91;4988373;28;20066;-64
2021/10/10 10:53:15;;;;;;;25.65;15.95;;;;;;;10.61;81.43;101347.63;4988420;28;20030;-63
2021/10/10 10:55:45;;;;;;;27.50;16.65;;;;;;;10.57;81.55;101341.59;5003635;28;20698;-62
2021/10/10 10:58:15;;;;;;;30.33;16.73;;;;;;;10.70;81.99;101338.88;4988565;28;20404;-63
2021/10/10 11:00:46;;;;;;;26.17;16.10;;;;;;;10.71;82.09;101333.41;4988500;28;20049;-62
2021/10/10 11:03:12;;;;;;;23.75;16.00;;;;;;;10.73;80.93;101339.53;4991950;28;20034;-63
2021/10/10 11:05:48;;;;;;;27.13;15.30;;;;;;;10.73;81.06;101331.50;4990675;28;20080;-63
2021/10/10 11:08:16;;;;;;;30.33;16.40;;;;;;;10.81;81.99;101333.63;4992151;28;20030;-63
2021/10/10 11:11:04;;;;;;;29.27;15.13;;;;;;;10.83;81.32;101327.16;4991948;28;20030;-63
2021/10/10 11:13:59;;;;;;;30.80;16.60;;;;;;;10.88;81.00;101316.09;4991551;28;20468;-63
2021/10/10 11:16:41;;;;;;;28.35;16.58;;;;;;;10.93;80.96;101322.84;4991684;28;20022;-65
2021/10/10 11:19:11;;;;;;;27.88;16.33;;;;;;;10.85;80.68;101295.72;4990598;28;20121;-63
2021/10/10 11:21:42;;;;;;;34.35;17.25;;;;;;;10.97;80.08;101318.13;4991445;28;20037;-63